Impacts TAF Board
For situational awareness. Not to be used for flight planning purposes.
IDs:

KDFW - Dallas-Ft Worth Intl, TX, US

Issued at 1730 UTC 24 Sep 2018
Updated at 1805 UTC 24 Sep 2018
Potential Impact None Slight Moderate High
Time1753Z 24/19Z 24/20Z 24/21Z 24/22Z 24/23Z 25/00Z 25/01Z 25/02Z 25/03Z 25/04Z 25/05Z 25/06Z 25/07Z>>
Type OBS PRVL PRVL PRVL PRVL PRVL PRVL PRVL PRVL PRVL PRVL PRVL PRVL PRVL
VIS 10 >6 >6 >6 >6 >6 >6 >6 >6 >6 >6 >6 >6 4
CIG 25 25 25 50 50 50 50 50 50 50 50 50 50 --
Cover OVC OVC OVC BKN BKN BKN BKN BKN BKN BKN BKN BKN BKN SCT
FltCat MVFR MVFR MVFR VFR VFR VFR VFR VFR VFR VFR VFR VFR VFR MVFR
WX -- -- -- -- -- -- -- -- -- -- -- -- -- BR
WDir VRB 260 260 210 210 210 210 210 210 210 210 210 210 170
WSpd 4 6 6 6 6 6 6 6 6 6 6 6 6 4
WGst -- -- -- -- -- -- -- -- -- -- -- -- -- --
Raw TAF
KDFW 241730Z 2418/2524 26006KT P6SM SCT018 BKN025 OVC035
  TEMPO 2418/2419 BKN018
  FM242100 21006KT P6SM SCT030 BKN050
  FM250700 17004KT 4SM BR SCT008 SCT060
  FM251400 19008KT P6SM SCT250


Raw METAR
KDFW 241753Z VRB04KT 10SM SCT019 BKN025 OVC035 25/20 A2991 RMK AO2 SLP120 T02500200 10256 20217 58002
KDFW 241653Z 24004KT 10SM BKN018 OVC026 24/19 A2992 RMK AO2 SLP125 T02440194
KDFW 241553Z 26005KT 10SM BKN016 OVC040 24/20 A2993 RMK AO2 SLP126 T02390200
KDFW 241543Z 25005KT 10SM BKN016 OVC040 24/20 A2992 RMK AO2 T02390200

METAR Board
Radar Display
Forecast Discussion
For situational awareness. Not to be used for flight planning purposes.